createdAt,value
2022-12-08T22:44:48.808Z,16.90
2022-12-08T22:45:48.701Z,22.50
2022-12-08T22:46:48.691Z,27.00
2022-12-08T22:47:48.631Z,28.70
2022-12-08T22:48:48.647Z,27.50
2022-12-08T22:49:48.642Z,28.10
2022-12-08T22:50:48.725Z,27.10
2022-12-08T22:51:48.574Z,28.70
2022-12-08T22:52:48.578Z,27.20
2022-12-08T22:53:48.549Z,29.20
2022-12-08T22:54:48.568Z,27.90
2022-12-08T22:55:48.545Z,25.90
2022-12-08T22:56:48.683Z,29.50
2022-12-08T22:57:48.514Z,27.50
2022-12-08T22:58:48.504Z,25.00
2022-12-08T22:59:48.499Z,25.80
2022-12-08T23:00:48.501Z,25.30
2022-12-08T23:01:48.487Z,24.60
2022-12-08T23:02:48.688Z,23.30
2022-12-08T23:03:48.722Z,24.20
2022-12-08T23:04:48.825Z,24.90
2022-12-08T23:05:48.528Z,27.00
2022-12-08T23:06:48.434Z,23.50
2022-12-08T23:07:48.594Z,24.00
2022-12-08T23:08:48.484Z,26.20
2022-12-08T23:09:48.597Z,25.20
2022-12-08T23:10:48.374Z,24.10
2022-12-08T23:11:48.472Z,24.10
2022-12-08T23:12:48.363Z,24.70
2022-12-08T23:13:48.547Z,26.00
2022-12-08T23:14:48.364Z,24.20
2022-12-08T23:15:48.323Z,27.60
2022-12-08T23:16:48.610Z,26.70
2022-12-08T23:17:48.582Z,25.10
2022-12-08T23:18:48.320Z,25.40
2022-12-08T23:19:48.284Z,25.20
2022-12-08T23:20:48.381Z,25.70
2022-12-08T23:21:48.363Z,28.20
2022-12-08T23:22:48.255Z,27.30
2022-12-08T23:23:48.244Z,26.20
2022-12-08T23:24:48.220Z,26.10
2022-12-08T23:25:48.409Z,24.50
2022-12-08T23:26:48.424Z,24.00
2022-12-08T23:27:48.192Z,24.70
2022-12-08T23:28:48.186Z,25.00
2022-12-08T23:29:48.352Z,25.70
2022-12-08T23:30:48.363Z,25.70
2022-12-08T23:31:48.215Z,27.00
2022-12-08T23:32:48.294Z,24.80
2022-12-08T23:33:48.151Z,28.10
2022-12-08T23:34:48.113Z,27.90
2022-12-08T23:35:48.133Z,26.30
2022-12-08T23:36:48.113Z,27.40
2022-12-08T23:37:48.282Z,27.90
2022-12-08T23:38:48.082Z,25.30
2022-12-08T23:39:48.087Z,26.20
2022-12-08T23:40:48.054Z,28.40
2022-12-08T23:41:48.067Z,25.30
2022-12-08T23:42:48.035Z,28.10
2022-12-08T23:43:48.068Z,28.60
2022-12-08T23:44:48.130Z,26.80
2022-12-08T23:45:48.355Z,27.30
2022-12-08T23:46:48.186Z,26.50
2022-12-08T23:47:47.978Z,28.40
2022-12-08T23:48:48.086Z,28.30
2022-12-08T23:49:47.988Z,25.30
2022-12-08T23:50:48.204Z,27.30
2022-12-08T23:51:47.935Z,27.90
2022-12-08T23:52:48.189Z,29.80
2022-12-08T23:53:47.913Z,29.50
2022-12-08T23:54:47.902Z,29.10
2022-12-08T23:55:47.935Z,31.90
2022-12-08T23:56:47.962Z,29.30
2022-12-08T23:57:47.872Z,27.40
2022-12-08T23:58:47.858Z,27.80
2022-12-08T23:59:47.849Z,28.20
